sensor_id;sensor_type;location;lat;lon;timestamp;temperature;humidity
68485;DHT22;55472;50.060;21.960;2023-06-22T00:01:12;21.30;79.50
68485;DHT22;55472;50.060;21.960;2023-06-22T00:03:38;21.30;79.40
68485;DHT22;55472;50.060;21.960;2023-06-22T00:06:04;21.40;79.40
68485;DHT22;55472;50.060;21.960;2023-06-22T00:08:30;21.30;79.40
68485;DHT22;55472;50.060;21.960;2023-06-22T00:10:56;21.30;79.20
68485;DHT22;55472;50.060;21.960;2023-06-22T00:13:23;21.30;79.40
68485;DHT22;55472;50.060;21.960;2023-06-22T00:15:49;21.30;79.50
68485;DHT22;55472;50.060;21.960;2023-06-22T00:18:15;21.30;79.40
68485;DHT22;55472;50.060;21.960;2023-06-22T00:20:42;21.30;79.60
68485;DHT22;55472;50.060;21.960;2023-06-22T00:23:08;21.20;79.50
68485;DHT22;55472;50.060;21.960;2023-06-22T00:25:38;21.20;79.40
68485;DHT22;55472;50.060;21.960;2023-06-22T00:28:07;21.20;79.90
68485;DHT22;55472;50.060;21.960;2023-06-22T00:30:34;21.20;80.20
68485;DHT22;55472;50.060;21.960;2023-06-22T00:33:01;21.10;79.90
68485;DHT22;55472;50.060;21.960;2023-06-22T00:35:27;21.00;80.40
68485;DHT22;55472;50.060;21.960;2023-06-22T00:37:57;20.90;80.90
68485;DHT22;55472;50.060;21.960;2023-06-22T00:40:32;20.90;81.20
68485;DHT22;55472;50.060;21.960;2023-06-22T00:42:59;20.90;81.20
68485;DHT22;55472;50.060;21.960;2023-06-22T00:45:26;20.90;81.30
68485;DHT22;55472;50.060;21.960;2023-06-22T00:47:56;20.90;81.30
68485;DHT22;55472;50.060;21.960;2023-06-22T00:50:24;20.90;81.20
68485;DHT22;55472;50.060;21.960;2023-06-22T00:52:53;20.90;81.10
68485;DHT22;55472;50.060;21.960;2023-06-22T00:55:22;20.90;81.10
68485;DHT22;55472;50.060;21.960;2023-06-22T00:57:50;20.90;81.30
68485;DHT22;55472;50.060;21.960;2023-06-22T01:00:16;20.80;81.30
68485;DHT22;55472;50.060;21.960;2023-06-22T01:02:44;20.80;81.40
68485;DHT22;55472;50.060;21.960;2023-06-22T01:05:18;20.80;81.20
68485;DHT22;55472;50.060;21.960;2023-06-22T01:11:05;20.80;81.60
68485;DHT22;55472;50.060;21.960;2023-06-22T01:16:32;20.70;82.10
68485;DHT22;55472;50.060;21.960;2023-06-22T01:22:02;20.60;82.80
68485;DHT22;55472;50.060;21.960;2023-06-22T01:30:48;20.20;84.60
68485;DHT22;55472;50.060;21.960;2023-06-22T01:33:16;20.20;84.90
68485;DHT22;55472;50.060;21.960;2023-06-22T01:35:43;20.20;84.70
68485;DHT22;55472;50.060;21.960;2023-06-22T01:38:10;20.20;84.50
68485;DHT22;55472;50.060;21.960;2023-06-22T01:40:37;20.20;84.60
68485;DHT22;55472;50.060;21.960;2023-06-22T01:43:03;20.20;84.30
68485;DHT22;55472;50.060;21.960;2023-06-22T01:45:30;20.20;84.70
68485;DHT22;55472;50.060;21.960;2023-06-22T01:47:56;20.20;84.50
68485;DHT22;55472;50.060;21.960;2023-06-22T01:50:24;20.20;84.30
68485;DHT22;55472;50.060;21.960;2023-06-22T01:52:50;20.20;84.40
68485;DHT22;55472;50.060;21.960;2023-06-22T01:55:17;20.20;84.50
68485;DHT22;55472;50.060;21.960;2023-06-22T01:57:43;20.20;84.50
68485;DHT22;55472;50.060;21.960;2023-06-22T02:00:17;20.20;84.20
68485;DHT22;55472;50.060;21.960;2023-06-22T02:02:59;20.20;84.20
68485;DHT22;55472;50.060;21.960;2023-06-22T02:05:31;20.20;84.20
68485;DHT22;55472;50.060;21.960;2023-06-22T02:08:11;20.20;84.20
68485;DHT22;55472;50.060;21.960;2023-06-22T02:10:42;20.20;84.10
68485;DHT22;55472;50.060;21.960;2023-06-22T02:13:10;20.20;84.00
68485;DHT22;55472;50.060;21.960;2023-06-22T02:15:37;20.20;84.20
68485;DHT22;55472;50.060;21.960;2023-06-22T02:18:03;20.20;84.40
68485;DHT22;55472;50.060;21.960;2023-06-22T02:20:31;20.10;84.60
68485;DHT22;55472;50.060;21.960;2023-06-22T02:22:57;20.10;84.60
68485;DHT22;55472;50.060;21.960;2023-06-22T02:25:23;20.10;84.80
68485;DHT22;55472;50.060;21.960;2023-06-22T02:27:49;20.10;84.70
68485;DHT22;55472;50.060;21.960;2023-06-22T02:30:15;20.10;84.80
68485;DHT22;55472;50.060;21.960;2023-06-22T02:32:42;20.10;84.90
68485;DHT22;55472;50.060;21.960;2023-06-22T02:35:09;20.10;85.10
68485;DHT22;55472;50.060;21.960;2023-06-22T02:37:37;20.10;85.10
68485;DHT22;55472;50.060;21.960;2023-06-22T02:40:08;20.10;85.00
68485;DHT22;55472;50.060;21.960;2023-06-22T02:42:39;20.10;85.10
68485;DHT22;55472;50.060;21.960;2023-06-22T02:45:05;20.10;85.00
68485;DHT22;55472;50.060;21.960;2023-06-22T02:47:32;20.10;85.00
68485;DHT22;55472;50.060;21.960;2023-06-22T02:49:58;20.10;84.80
68485;DHT22;55472;50.060;21.960;2023-06-22T02:52:24;20.10;85.40
68485;DHT22;55472;50.060;21.960;2023-06-22T02:54:50;20.10;85.50
68485;DHT22;55472;50.060;21.960;2023-06-22T02:57:16;20.10;85.50
68485;DHT22;55472;50.060;21.960;2023-06-22T02:59:42;20.10;85.20
68485;DHT22;55472;50.060;21.960;2023-06-22T03:02:09;20.10;85.30
68485;DHT22;55472;50.060;21.960;2023-06-22T03:04:36;20.10;85.10
68485;DHT22;55472;50.060;21.960;2023-06-22T03:07:02;20.10;84.90
68485;DHT22;55472;50.060;21.960;2023-06-22T03:09:28;20.00;85.30
68485;DHT22;55472;50.060;21.960;2023-06-22T03:11:54;20.00;85.90
68485;DHT22;55472;50.060;21.960;2023-06-22T03:14:21;19.90;86.20
68485;DHT22;55472;50.060;21.960;2023-06-22T03:16:47;19.80;86.90
68485;DHT22;55472;50.060;21.960;2023-06-22T03:19:13;19.70;87.50
68485;DHT22;55472;50.060;21.960;2023-06-22T03:21:40;19.80;87.50
68485;DHT22;55472;50.060;21.960;2023-06-22T03:24:07;19.80;87.30
68485;DHT22;55472;50.060;21.960;2023-06-22T03:26:34;19.90;86.90
68485;DHT22;55472;50.060;21.960;2023-06-22T03:29:00;19.90;87.00
68485;DHT22;55472;50.060;21.960;2023-06-22T03:31:26;19.90;86.60
68485;DHT22;55472;50.060;21.960;2023-06-22T03:33:52;20.00;86.80
68485;DHT22;55472;50.060;21.960;2023-06-22T03:36:19;20.00;86.50
68485;DHT22;55472;50.060;21.960;2023-06-22T03:38:46;20.10;86.50
68485;DHT22;55472;50.060;21.960;2023-06-22T03:41:13;20.10;86.40
68485;DHT22;55472;50.060;21.960;2023-06-22T03:43:39;20.20;86.20
68485;DHT22;55472;50.060;21.960;2023-06-22T03:46:05;20.20;85.70
68485;DHT22;55472;50.060;21.960;2023-06-22T03:48:31;20.20;86.10
68485;DHT22;55472;50.060;21.960;2023-06-22T03:50:59;20.20;85.90
68485;DHT22;55472;50.060;21.960;2023-06-22T03:53:26;20.30;85.90
68485;DHT22;55472;50.060;21.960;2023-06-22T03:55:53;20.30;85.60
68485;DHT22;55472;50.060;21.960;2023-06-22T03:58:20;20.30;85.80
68485;DHT22;55472;50.060;21.960;2023-06-22T04:00:48;20.30;85.80
68485;DHT22;55472;50.060;21.960;2023-06-22T04:03:15;20.40;85.60
68485;DHT22;55472;50.060;21.960;2023-06-22T04:05:44;20.30;85.90
68485;DHT22;55472;50.060;21.960;2023-06-22T04:08:12;20.40;85.60
68485;DHT22;55472;50.060;21.960;2023-06-22T04:10:38;20.40;85.70
68485;DHT22;55472;50.060;21.960;2023-06-22T04:13:04;20.40;85.60
68485;DHT22;55472;50.060;21.960;2023-06-22T04:15:30;20.50;85.70
68485;DHT22;55472;50.060;21.960;2023-06-22T04:17:56;20.50;85.70
68485;DHT22;55472;50.060;21.960;2023-06-22T04:20:23;20.50;85.80
68485;DHT22;55472;50.060;21.960;2023-06-22T04:22:53;20.60;85.80
68485;DHT22;55472;50.060;21.960;2023-06-22T04:25:20;20.60;85.60
68485;DHT22;55472;50.060;21.960;2023-06-22T04:27:47;20.60;85.50
68485;DHT22;55472;50.060;21.960;2023-06-22T04:30:14;20.70;85.80
68485;DHT22;55472;50.060;21.960;2023-06-22T04:32:44;20.70;85.40
68485;DHT22;55472;50.060;21.960;2023-06-22T04:35:13;20.70;85.40
68485;DHT22;55472;50.060;21.960;2023-06-22T04:37:41;20.70;85.20
68485;DHT22;55472;50.060;21.960;2023-06-22T04:40:08;20.70;85.20
68485;DHT22;55472;50.060;21.960;2023-06-22T04:42:34;20.80;85.30
68485;DHT22;55472;50.060;21.960;2023-06-22T04:45:03;20.80;85.30
68485;DHT22;55472;50.060;21.960;2023-06-22T04:47:30;20.80;85.60
68485;DHT22;55472;50.060;21.960;2023-06-22T04:49:56;20.90;85.60
68485;DHT22;55472;50.060;21.960;2023-06-22T04:52:22;20.90;85.60
68485;DHT22;55472;50.060;21.960;2023-06-22T04:54:50;21.00;85.50
68485;DHT22;55472;50.060;21.960;2023-06-22T04:57:23;21.00;85.40
68485;DHT22;55472;50.060;21.960;2023-06-22T04:59:56;21.00;85.50
68485;DHT22;55472;50.060;21.960;2023-06-22T05:02:22;21.10;85.40
68485;DHT22;55472;50.060;21.960;2023-06-22T05:04:53;21.20;85.30
68485;DHT22;55472;50.060;21.960;2023-06-22T05:07:22;21.20;85.20
68485;DHT22;55472;50.060;21.960;2023-06-22T05:09:51;21.30;85.10
68485;DHT22;55472;50.060;21.960;2023-06-22T05:12:17;21.30;84.80
68485;DHT22;55472;50.060;21.960;2023-06-22T05:14:43;21.40;84.50
68485;DHT22;55472;50.060;21.960;2023-06-22T05:17:09;21.40;84.40
68485;DHT22;55472;50.060;21.960;2023-06-22T05:19:40;21.50;84.30
68485;DHT22;55472;50.060;21.960;2023-06-22T05:22:10;21.60;84.30
68485;DHT22;55472;50.060;21.960;2023-06-22T05:24:38;21.60;84.20
68485;DHT22;55472;50.060;21.960;2023-06-22T05:27:04;21.70;84.10
68485;DHT22;55472;50.060;21.960;2023-06-22T05:29:31;21.70;83.80
68485;DHT22;55472;50.060;21.960;2023-06-22T05:31:57;21.80;83.60
68485;DHT22;55472;50.060;21.960;2023-06-22T05:34:23;21.80;83.40
68485;DHT22;55472;50.060;21.960;2023-06-22T05:36:49;21.80;83.30
68485;DHT22;55472;50.060;21.960;2023-06-22T05:39:15;21.80;83.50
68485;DHT22;55472;50.060;21.960;2023-06-22T05:41:42;21.90;83.30
68485;DHT22;55472;50.060;21.960;2023-06-22T05:44:09;21.90;83.30
68485;DHT22;55472;50.060;21.960;2023-06-22T05:46:35;21.90;83.20
68485;DHT22;55472;50.060;21.960;2023-06-22T05:49:01;21.90;83.20
68485;DHT22;55472;50.060;21.960;2023-06-22T05:51:27;21.90;83.30
68485;DHT22;55472;50.060;21.960;2023-06-22T05:53:53;21.90;83.50
68485;DHT22;55472;50.060;21.960;2023-06-22T05:56:20;22.00;83.20
68485;DHT22;55472;50.060;21.960;2023-06-22T05:58:47;22.00;83.30
68485;DHT22;55472;50.060;21.960;2023-06-22T06:01:13;22.00;83.30
68485;DHT22;55472;50.060;21.960;2023-06-22T06:03:41;22.10;83.50
68485;DHT22;55472;50.060;21.960;2023-06-22T06:06:07;22.10;83.20
68485;DHT22;55472;50.060;21.960;2023-06-22T06:08:34;22.20;83.10
68485;DHT22;55472;50.060;21.960;2023-06-22T06:11:00;22.20;83.10
68485;DHT22;55472;50.060;21.960;2023-06-22T06:13:26;22.30;83.00
68485;DHT22;55472;50.060;21.960;2023-06-22T06:15:52;22.30;82.90
68485;DHT22;55472;50.060;21.960;2023-06-22T06:18:21;22.40;82.80
68485;DHT22;55472;50.060;21.960;2023-06-22T06:20:47;22.50;82.40
68485;DHT22;55472;50.060;21.960;2023-06-22T06:23:13;22.60;81.70
68485;DHT22;55472;50.060;21.960;2023-06-22T06:25:39;22.60;81.50
68485;DHT22;55472;50.060;21.960;2023-06-22T06:28:05;22.60;81.20
68485;DHT22;55472;50.060;21.960;2023-06-22T06:30:32;22.60;81.00
68485;DHT22;55472;50.060;21.960;2023-06-22T06:32:58;22.70;81.00
68485;DHT22;55472;50.060;21.960;2023-06-22T06:35:24;22.70;81.10
68485;DHT22;55472;50.060;21.960;2023-06-22T06:37:50;22.80;81.20
68485;DHT22;55472;50.060;21.960;2023-06-22T06:40:17;22.80;80.70
68485;DHT22;55472;50.060;21.960;2023-06-22T06:42:46;22.80;80.50
68485;DHT22;55472;50.060;21.960;2023-06-22T06:45:22;22.90;80.40
68485;DHT22;55472;50.060;21.960;2023-06-22T06:47:50;22.90;80.70
68485;DHT22;55472;50.060;21.960;2023-06-22T06:50:17;23.10;80.50
68485;DHT22;55472;50.060;21.960;2023-06-22T06:52:44;23.20;80.10
68485;DHT22;55472;50.060;21.960;2023-06-22T06:55:10;23.30;79.90
68485;DHT22;55472;50.060;21.960;2023-06-22T06:57:38;23.50;79.80
68485;DHT22;55472;50.060;21.960;2023-06-22T07:00:07;23.70;79.40
68485;DHT22;55472;50.060;21.960;2023-06-22T07:02:40;23.90;78.60
68485;DHT22;55472;50.060;21.960;2023-06-22T07:05:08;24.10;77.90
68485;DHT22;55472;50.060;21.960;2023-06-22T07:07:35;24.30;77.40
68485;DHT22;55472;50.060;21.960;2023-06-22T07:10:01;24.50;76.70
68485;DHT22;55472;50.060;21.960;2023-06-22T07:12:29;24.70;76.10
68485;DHT22;55472;50.060;21.960;2023-06-22T07:15:06;24.90;75.90
68485;DHT22;55472;50.060;21.960;2023-06-22T07:17:37;25.10;75.20
68485;DHT22;55472;50.060;21.960;2023-06-22T07:20:06;25.30;74.40
68485;DHT22;55472;50.060;21.960;2023-06-22T07:22:38;25.50;73.50
68485;DHT22;55472;50.060;21.960;2023-06-22T07:25:06;25.70;72.40
68485;DHT22;55472;50.060;21.960;2023-06-22T07:27:38;25.90;71.20
68485;DHT22;55472;50.060;21.960;2023-06-22T07:30:09;26.10;70.90
68485;DHT22;55472;50.060;21.960;2023-06-22T07:32:36;26.30;69.70
68485;DHT22;55472;50.060;21.960;2023-06-22T07:35:02;26.40;69.40
68485;DHT22;55472;50.060;21.960;2023-06-22T07:37:30;26.60;68.60
68485;DHT22;55472;50.060;21.960;2023-06-22T07:39:59;26.70;67.50
68485;DHT22;55472;50.060;21.960;2023-06-22T07:42:25;26.90;67.20
68485;DHT22;55472;50.060;21.960;2023-06-22T07:44:52;27.10;66.40
68485;DHT22;55472;50.060;21.960;2023-06-22T07:47:19;27.30;65.80
68485;DHT22;55472;50.060;21.960;2023-06-22T07:49:46;27.40;65.30
68485;DHT22;55472;50.060;21.960;2023-06-22T07:52:12;27.60;64.80
68485;DHT22;55472;50.060;21.960;2023-06-22T07:54:38;27.80;64.70
68485;DHT22;55472;50.060;21.960;2023-06-22T07:57:05;27.90;62.50
68485;DHT22;55472;50.060;21.960;2023-06-22T07:59:31;28.00;62.00
68485;DHT22;55472;50.060;21.960;2023-06-22T08:01:57;28.20;62.20
68485;DHT22;55472;50.060;21.960;2023-06-22T08:04:23;28.40;60.90
68485;DHT22;55472;50.060;21.960;2023-06-22T08:06:50;28.60;60.10
68485;DHT22;55472;50.060;21.960;2023-06-22T08:09:16;28.80;59.50
68485;DHT22;55472;50.060;21.960;2023-06-22T08:11:42;29.00;59.30
68485;DHT22;55472;50.060;21.960;2023-06-22T08:14:08;29.20;58.90
68485;DHT22;55472;50.060;21.960;2023-06-22T08:16:34;29.30;58.80
68485;DHT22;55472;50.060;21.960;2023-06-22T08:19:00;29.30;58.70
68485;DHT22;55472;50.060;21.960;2023-06-22T08:21:26;29.30;59.10
68485;DHT22;55472;50.060;21.960;2023-06-22T08:23:53;29.30;59.10
68485;DHT22;55472;50.060;21.960;2023-06-22T08:26:20;29.40;59.30
68485;DHT22;55472;50.060;21.960;2023-06-22T08:28:46;29.40;59.50
68485;DHT22;55472;50.060;21.960;2023-06-22T08:31:12;29.50;59.00
68485;DHT22;55472;50.060;21.960;2023-06-22T08:33:39;29.60;59.20
68485;DHT22;55472;50.060;21.960;2023-06-22T08:36:06;29.70;59.50
68485;DHT22;55472;50.060;21.960;2023-06-22T08:38:33;29.90;59.00
68485;DHT22;55472;50.060;21.960;2023-06-22T08:41:00;30.10;58.40
68485;DHT22;55472;50.060;21.960;2023-06-22T08:43:26;30.20;57.60
68485;DHT22;55472;50.060;21.960;2023-06-22T08:45:52;30.30;56.50
68485;DHT22;55472;50.060;21.960;2023-06-22T08:48:18;30.30;57.50
68485;DHT22;55472;50.060;21.960;2023-06-22T08:50:45;30.40;57.20
68485;DHT22;55472;50.060;21.960;2023-06-22T08:53:11;30.40;57.20
68485;DHT22;55472;50.060;21.960;2023-06-22T08:55:37;30.50;56.80
68485;DHT22;55472;50.060;21.960;2023-06-22T08:58:03;30.70;56.60
68485;DHT22;55472;50.060;21.960;2023-06-22T09:00:30;30.70;56.80
68485;DHT22;55472;50.060;21.960;2023-06-22T09:03:00;30.70;55.60
68485;DHT22;55472;50.060;21.960;2023-06-22T09:05:26;30.80;56.30
68485;DHT22;55472;50.060;21.960;2023-06-22T09:07:52;31.20;54.80
68485;DHT22;55472;50.060;21.960;2023-06-22T09:10:20;31.50;54.10
68485;DHT22;55472;50.060;21.960;2023-06-22T09:12:46;32.00;53.40
68485;DHT22;55472;50.060;21.960;2023-06-22T09:15:13;32.90;51.10
68485;DHT22;55472;50.060;21.960;2023-06-22T09:17:40;33.90;49.00
68485;DHT22;55472;50.060;21.960;2023-06-22T09:20:07;34.90;47.50
68485;DHT22;55472;50.060;21.960;2023-06-22T09:22:36;36.00;45.70
68485;DHT22;55472;50.060;21.960;2023-06-22T09:25:02;37.00;43.20
68485;DHT22;55472;50.060;21.960;2023-06-22T09:27:30;37.90;42.10
68485;DHT22;55472;50.060;21.960;2023-06-22T09:29:56;38.90;40.50
68485;DHT22;55472;50.060;21.960;2023-06-22T09:32:24;39.80;39.00
68485;DHT22;55472;50.060;21.960;2023-06-22T09:34:51;40.50;37.70
68485;DHT22;55472;50.060;21.960;2023-06-22T09:37:18;41.10;36.90
68485;DHT22;55472;50.060;21.960;2023-06-22T09:39:45;41.60;36.30
68485;DHT22;55472;50.060;21.960;2023-06-22T09:42:10;41.50;36.00
68485;DHT22;55472;50.060;21.960;2023-06-22T09:44:39;41.10;36.40
68485;DHT22;55472;50.060;21.960;2023-06-22T09:47:05;40.50;37.30
68485;DHT22;55472;50.060;21.960;2023-06-22T09:49:32;39.90;38.40
68485;DHT22;55472;50.060;21.960;2023-06-22T09:51:58;39.20;38.70
68485;DHT22;55472;50.060;21.960;2023-06-22T09:54:24;38.40;39.90
68485;DHT22;55472;50.060;21.960;2023-06-22T09:56:50;37.50;40.60
68485;DHT22;55472;50.060;21.960;2023-06-22T09:59:16;36.60;41.90
68485;DHT22;55472;50.060;21.960;2023-06-22T10:01:42;35.70;43.10
68485;DHT22;55472;50.060;21.960;2023-06-22T10:04:09;34.80;44.80
68485;DHT22;55472;50.060;21.960;2023-06-22T10:06:35;34.00;45.70
68485;DHT22;55472;50.060;21.960;2023-06-22T10:09:01;33.30;47.70
68485;DHT22;55472;50.060;21.960;2023-06-22T10:11:27;32.80;49.30
68485;DHT22;55472;50.060;21.960;2023-06-22T10:13:56;32.30;50.70
68485;DHT22;55472;50.060;21.960;2023-06-22T10:16:29;31.90;51.80
68485;DHT22;55472;50.060;21.960;2023-06-22T10:18:56;31.60;52.20
68485;DHT22;55472;50.060;21.960;2023-06-22T10:21:22;31.30;52.40
68485;DHT22;55472;50.060;21.960;2023-06-22T10:23:48;31.00;53.40
68485;DHT22;55472;50.060;21.960;2023-06-22T10:26:14;30.90;53.60
68485;DHT22;55472;50.060;21.960;2023-06-22T10:28:41;30.80;54.20
68485;DHT22;55472;50.060;21.960;2023-06-22T10:31:07;30.80;54.60
68485;DHT22;55472;50.060;21.960;2023-06-22T10:33:33;30.70;55.30
68485;DHT22;55472;50.060;21.960;2023-06-22T10:36:00;30.70;55.00
68485;DHT22;55472;50.060;21.960;2023-06-22T10:38:27;30.60;55.70
68485;DHT22;55472;50.060;21.960;2023-06-22T10:40:53;30.60;56.20
68485;DHT22;55472;50.060;21.960;2023-06-22T10:43:19;30.70;56.00
68485;DHT22;55472;50.060;21.960;2023-06-22T10:45:45;30.80;55.50
68485;DHT22;55472;50.060;21.960;2023-06-22T10:48:11;31.00;56.40
68485;DHT22;55472;50.060;21.960;2023-06-22T10:50:37;31.30;56.10
68485;DHT22;55472;50.060;21.960;2023-06-22T10:53:04;31.60;52.60
68485;DHT22;55472;50.060;21.960;2023-06-22T10:55:29;31.80;51.40
68485;DHT22;55472;50.060;21.960;2023-06-22T10:57:56;31.90;51.70
68485;DHT22;55472;50.060;21.960;2023-06-22T11:00:22;32.00;52.50
68485;DHT22;55472;50.060;21.960;2023-06-22T11:02:48;32.10;53.10
68485;DHT22;55472;50.060;21.960;2023-06-22T11:05:14;32.40;52.20
68485;DHT22;55472;50.060;21.960;2023-06-22T11:07:44;32.80;51.50
68485;DHT22;55472;50.060;21.960;2023-06-22T11:10:10;33.30;50.70
68485;DHT22;55472;50.060;21.960;2023-06-22T11:12:38;33.60;50.20
68485;DHT22;55472;50.060;21.960;2023-06-22T11:17:31;34.40;48.80
68485;DHT22;55472;50.060;21.960;2023-06-22T11:19:57;34.30;47.80
68485;DHT22;55472;50.060;21.960;2023-06-22T11:22:25;33.90;48.10
68485;DHT22;55472;50.060;21.960;2023-06-22T11:24:51;33.70;48.90
68485;DHT22;55472;50.060;21.960;2023-06-22T11:27:17;33.70;49.50
68485;DHT22;55472;50.060;21.960;2023-06-22T11:29:43;33.80;49.60
68485;DHT22;55472;50.060;21.960;2023-06-22T11:32:09;33.80;49.40
68485;DHT22;55472;50.060;21.960;2023-06-22T11:34:35;33.80;49.20
68485;DHT22;55472;50.060;21.960;2023-06-22T11:37:02;33.80;49.60
68485;DHT22;55472;50.060;21.960;2023-06-22T11:39:28;33.70;49.20
68485;DHT22;55472;50.060;21.960;2023-06-22T11:41:54;33.70;48.50
68485;DHT22;55472;50.060;21.960;2023-06-22T11:44:20;33.60;48.90
68485;DHT22;55472;50.060;21.960;2023-06-22T11:46:47;33.50;48.40
68485;DHT22;55472;50.060;21.960;2023-06-22T11:49:14;33.40;48.40
68485;DHT22;55472;50.060;21.960;2023-06-22T11:51:40;33.30;48.80
68485;DHT22;55472;50.060;21.960;2023-06-22T11:54:06;33.20;50.00
68485;DHT22;55472;50.060;21.960;2023-06-22T11:56:33;33.10;49.50
68485;DHT22;55472;50.060;21.960;2023-06-22T11:58:59;33.10;49.20
68485;DHT22;55472;50.060;21.960;2023-06-22T12:01:25;33.20;49.00
68485;DHT22;55472;50.060;21.960;2023-06-22T12:03:51;33.10;48.70
68485;DHT22;55472;50.060;21.960;2023-06-22T12:06:17;33.10;48.60
68485;DHT22;55472;50.060;21.960;2023-06-22T12:08:43;33.00;49.00
68485;DHT22;55472;50.060;21.960;2023-06-22T12:11:10;32.90;50.00
68485;DHT22;55472;50.060;21.960;2023-06-22T12:13:36;32.70;49.30
68485;DHT22;55472;50.060;21.960;2023-06-22T12:16:02;32.60;49.20
68485;DHT22;55472;50.060;21.960;2023-06-22T12:18:28;32.40;49.30
68485;DHT22;55472;50.060;21.960;2023-06-22T12:20:54;32.20;49.80
68485;DHT22;55472;50.060;21.960;2023-06-22T12:23:20;32.00;50.30
68485;DHT22;55472;50.060;21.960;2023-06-22T12:25:46;32.00;50.70
68485;DHT22;55472;50.060;21.960;2023-06-22T12:28:12;31.80;50.90
68485;DHT22;55472;50.060;21.960;2023-06-22T12:30:38;31.60;53.50
68485;DHT22;55472;50.060;21.960;2023-06-22T12:33:05;31.40;60.80
68485;DHT22;55472;50.060;21.960;2023-06-22T12:35:31;31.10;63.60
68485;DHT22;55472;50.060;21.960;2023-06-22T12:37:57;30.60;65.40
68485;DHT22;55472;50.060;21.960;2023-06-22T12:40:24;29.80;67.30
68485;DHT22;55472;50.060;21.960;2023-06-22T12:42:50;29.10;70.10
68485;DHT22;55472;50.060;21.960;2023-06-22T12:45:16;28.70;70.20
68485;DHT22;55472;50.060;21.960;2023-06-22T12:47:42;28.40;71.20
68485;DHT22;55472;50.060;21.960;2023-06-22T12:50:09;27.90;73.40
68485;DHT22;55472;50.060;21.960;2023-06-22T12:52:37;27.70;73.50
68485;DHT22;55472;50.060;21.960;2023-06-22T12:55:07;27.50;74.50
68485;DHT22;55472;50.060;21.960;2023-06-22T12:57:33;27.30;74.40
68485;DHT22;55472;50.060;21.960;2023-06-22T12:59:59;26.80;79.50
68485;DHT22;55472;50.060;21.960;2023-06-22T13:02:26;26.60;80.20
68485;DHT22;55472;50.060;21.960;2023-06-22T13:04:53;26.40;80.00
68485;DHT22;55472;50.060;21.960;2023-06-22T13:07:19;26.40;79.10
68485;DHT22;55472;50.060;21.960;2023-06-22T13:09:45;26.50;79.00
68485;DHT22;55472;50.060;21.960;2023-06-22T13:12:12;26.60;79.40
68485;DHT22;55472;50.060;21.960;2023-06-22T13:14:38;26.70;77.60
68485;DHT22;55472;50.060;21.960;2023-06-22T13:17:04;26.80;77.70
68485;DHT22;55472;50.060;21.960;2023-06-22T13:19:31;27.00;78.10
68485;DHT22;55472;50.060;21.960;2023-06-22T13:21:58;27.00;75.60
68485;DHT22;55472;50.060;21.960;2023-06-22T13:24:25;27.00;74.00
68485;DHT22;55472;50.060;21.960;2023-06-22T13:26:51;27.00;77.10
68485;DHT22;55472;50.060;21.960;2023-06-22T13:29:18;26.90;74.00
68485;DHT22;55472;50.060;21.960;2023-06-22T13:31:44;26.80;72.80
68485;DHT22;55472;50.060;21.960;2023-06-22T13:34:10;26.80;74.80
68485;DHT22;55472;50.060;21.960;2023-06-22T13:36:36;27.00;75.50
68485;DHT22;55472;50.060;21.960;2023-06-22T13:39:02;27.00;74.10
68485;DHT22;55472;50.060;21.960;2023-06-22T13:41:29;27.20;71.60
68485;DHT22;55472;50.060;21.960;2023-06-22T13:43:55;27.20;73.30
68485;DHT22;55472;50.060;21.960;2023-06-22T13:46:21;27.40;72.70
68485;DHT22;55472;50.060;21.960;2023-06-22T13:48:47;27.40;73.80
68485;DHT22;55472;50.060;21.960;2023-06-22T13:51:13;27.40;68.90
68485;DHT22;55472;50.060;21.960;2023-06-22T13:53:40;27.30;70.20
68485;DHT22;55472;50.060;21.960;2023-06-22T13:56:06;27.10;68.50
68485;DHT22;55472;50.060;21.960;2023-06-22T13:58:32;27.10;70.30
68485;DHT22;55472;50.060;21.960;2023-06-22T14:00:58;27.10;73.00
68485;DHT22;55472;50.060;21.960;2023-06-22T14:03:24;27.10;73.80
68485;DHT22;55472;50.060;21.960;2023-06-22T14:05:51;27.20;73.50
68485;DHT22;55472;50.060;21.960;2023-06-22T14:08:20;27.40;73.20
68485;DHT22;55472;50.060;21.960;2023-06-22T14:10:46;27.50;73.60
68485;DHT22;55472;50.060;21.960;2023-06-22T14:13:12;27.60;74.30
68485;DHT22;55472;50.060;21.960;2023-06-22T14:15:38;27.70;71.50
68485;DHT22;55472;50.060;21.960;2023-06-22T14:18:05;27.70;71.10
68485;DHT22;55472;50.060;21.960;2023-06-22T14:20:31;27.80;72.20
68485;DHT22;55472;50.060;21.960;2023-06-22T14:22:57;27.80;69.90
68485;DHT22;55472;50.060;21.960;2023-06-22T14:25:23;27.80;69.60
68485;DHT22;55472;50.060;21.960;2023-06-22T14:27:49;27.80;69.60
68485;DHT22;55472;50.060;21.960;2023-06-22T14:30:15;27.90;69.20
68485;DHT22;55472;50.060;21.960;2023-06-22T14:32:43;27.90;68.90
68485;DHT22;55472;50.060;21.960;2023-06-22T14:35:09;27.90;69.50
68485;DHT22;55472;50.060;21.960;2023-06-22T14:37:36;27.90;69.50
68485;DHT22;55472;50.060;21.960;2023-06-22T14:40:02;27.90;70.00
68485;DHT22;55472;50.060;21.960;2023-06-22T14:42:29;27.90;70.00
68485;DHT22;55472;50.060;21.960;2023-06-22T14:44:55;27.90;70.30
68485;DHT22;55472;50.060;21.960;2023-06-22T14:47:22;27.90;70.30
68485;DHT22;55472;50.060;21.960;2023-06-22T14:49:48;27.90;70.70
68485;DHT22;55472;50.060;21.960;2023-06-22T14:52:14;27.90;70.70
68485;DHT22;55472;50.060;21.960;2023-06-22T14:54:40;28.00;69.00
68485;DHT22;55472;50.060;21.960;2023-06-22T14:57:07;28.00;69.50
68485;DHT22;55472;50.060;21.960;2023-06-22T14:59:33;28.00;68.80
68485;DHT22;55472;50.060;21.960;2023-06-22T15:01:59;28.00;69.90
68485;DHT22;55472;50.060;21.960;2023-06-22T15:04:25;28.00;69.30
68485;DHT22;55472;50.060;21.960;2023-06-22T15:06:57;28.00;70.20
68485;DHT22;55472;50.060;21.960;2023-06-22T15:09:23;28.00;68.70
68485;DHT22;55472;50.060;21.960;2023-06-22T15:11:49;28.00;68.40
68485;DHT22;55472;50.060;21.960;2023-06-22T15:14:15;28.00;68.10
68485;DHT22;55472;50.060;21.960;2023-06-22T15:16:41;28.00;68.90
68485;DHT22;55472;50.060;21.960;2023-06-22T15:19:07;28.00;68.80
68485;DHT22;55472;50.060;21.960;2023-06-22T15:21:35;28.00;68.00
68485;DHT22;55472;50.060;21.960;2023-06-22T15:24:01;28.00;68.80
68485;DHT22;55472;50.060;21.960;2023-06-22T15:26:28;28.00;69.70
68485;DHT22;55472;50.060;21.960;2023-06-22T15:28:54;28.10;68.70
68485;DHT22;55472;50.060;21.960;2023-06-22T15:31:20;28.10;68.20